createdAt,value
2022-12-16T00:00:15.390Z,1.74
2022-12-16T00:01:18.514Z,1.75
2022-12-16T00:02:20.554Z,1.76
2022-12-16T00:03:22.525Z,1.74
2022-12-16T00:04:24.378Z,1.76
2022-12-16T00:05:26.175Z,1.73
2022-12-16T00:06:30.176Z,1.71
2022-12-16T00:07:32.095Z,1.71
2022-12-16T00:08:34.888Z,1.71
2022-12-16T00:09:36.741Z,1.71
2022-12-16T00:10:53.459Z,1.71
2022-12-16T00:11:57.056Z,1.69
2022-12-16T00:12:58.727Z,1.65
2022-12-16T00:14:00.731Z,1.64
2022-12-16T00:15:02.616Z,1.62
2022-12-16T00:16:06.197Z,1.63
2022-12-16T00:17:07.983Z,1.63
2022-12-16T00:18:10.127Z,1.66
2022-12-16T00:19:12.538Z,1.67
2022-12-16T00:20:14.330Z,1.67
2022-12-16T00:21:18.858Z,1.67
2022-12-16T00:22:20.635Z,1.69
2022-12-16T00:23:22.753Z,1.70
2022-12-16T00:24:24.766Z,1.73
2022-12-16T00:25:26.538Z,1.75
2022-12-16T00:26:29.941Z,1.77
2022-12-16T00:27:31.725Z,1.78
2022-12-16T00:28:34.057Z,1.78
2022-12-16T00:29:35.955Z,1.77
2022-12-16T00:30:37.897Z,1.76
2022-12-16T00:31:39.800Z,1.73
2022-12-16T00:32:41.592Z,1.74
2022-12-16T00:33:44.591Z,1.76
2022-12-16T00:34:46.615Z,1.77
2022-12-16T00:35:48.667Z,1.77
2022-12-16T00:36:50.427Z,1.76
2022-12-16T00:37:52.389Z,1.75
2022-12-16T00:38:55.336Z,1.72
2022-12-16T00:39:57.116Z,1.73
2022-12-16T00:40:58.983Z,1.74
2022-12-16T00:42:00.817Z,1.76
2022-12-16T00:43:02.551Z,1.78
2022-12-16T00:44:05.575Z,1.80
2022-12-16T00:45:08.011Z,1.80
2022-12-16T00:46:10.821Z,1.82
2022-12-16T00:47:12.841Z,1.83
2022-12-16T00:48:15.174Z,1.84
2022-12-16T00:49:16.957Z,1.86
2022-12-16T00:50:18.816Z,1.85
2022-12-16T00:51:21.600Z,1.84
2022-12-16T00:52:23.427Z,1.82
2022-12-16T00:53:25.386Z,1.83
2022-12-16T00:54:27.243Z,1.84
2022-12-16T00:55:28.990Z,1.84
2022-12-16T00:56:31.565Z,1.82
2022-12-16T00:57:33.356Z,1.79
2022-12-16T00:58:35.700Z,1.78
2022-12-16T00:59:38.192Z,1.79
2022-12-16T01:00:40.156Z,1.81
2022-12-16T01:01:42.185Z,1.81
2022-12-16T01:02:45.357Z,1.79
2022-12-16T01:03:47.379Z,1.80
2022-12-16T01:04:49.182Z,1.79
2022-12-16T01:05:51.086Z,1.79
2022-12-16T01:06:54.888Z,1.79
2022-12-16T01:07:58.644Z,1.80
2022-12-16T01:09:00.457Z,1.78
2022-12-16T01:10:02.854Z,1.76
2022-12-16T01:11:04.793Z,1.76
2022-12-16T01:12:06.700Z,1.76
2022-12-16T01:13:08.548Z,1.76
2022-12-16T01:14:10.529Z,1.76
2022-12-16T01:15:13.362Z,1.74
2022-12-16T01:16:15.744Z,1.74
2022-12-16T01:17:17.619Z,1.74
2022-12-16T01:18:19.478Z,1.75
2022-12-16T01:19:21.293Z,1.74
2022-12-16T01:20:23.091Z,1.74
2022-12-16T01:21:24.891Z,1.75
2022-12-16T01:22:27.158Z,1.76
2022-12-16T01:23:29.779Z,1.76
2022-12-16T01:24:32.056Z,1.77
2022-12-16T01:25:33.920Z,1.78
2022-12-16T01:26:35.788Z,1.78
2022-12-16T01:27:37.552Z,1.80
2022-12-16T01:28:40.656Z,1.78
2022-12-16T01:29:42.907Z,1.78
2022-12-16T01:30:45.697Z,1.78
2022-12-16T01:31:47.527Z,1.77
2022-12-16T01:32:49.357Z,1.78
2022-12-16T01:33:52.241Z,1.73
2022-12-16T01:34:56.663Z,1.71
2022-12-16T01:35:59.481Z,1.70
2022-12-16T01:37:01.293Z,1.69
2022-12-16T01:38:03.025Z,1.69
2022-12-16T01:39:05.612Z,1.66
2022-12-16T01:40:09.653Z,1.66
2022-12-16T01:41:16.708Z,1.66
2022-12-16T01:42:20.222Z,1.64
2022-12-16T01:43:25.441Z,1.64
2022-12-16T01:44:27.370Z,1.63
2022-12-16T01:45:34.082Z,1.64
2022-12-16T01:46:38.762Z,1.64
2022-12-16T01:47:40.599Z,1.62
2022-12-16T01:48:45.048Z,1.62
2022-12-16T01:49:54.957Z,1.60
2022-12-16T01:50:59.757Z,1.58
2022-12-16T01:52:03.349Z,1.53
2022-12-16T01:53:05.272Z,1.46
2022-12-16T01:54:11.480Z,1.46
2022-12-16T01:55:16.068Z,1.49
2022-12-16T01:56:20.229Z,1.52
2022-12-16T01:57:24.750Z,1.53
2022-12-16T01:58:29.693Z,1.55
2022-12-16T01:59:32.971Z,1.57
2022-12-16T02:00:35.617Z,1.58
2022-12-16T02:01:37.607Z,1.61
2022-12-16T02:02:39.581Z,1.62
2022-12-16T02:03:42.494Z,1.64
2022-12-16T02:05:07.150Z,1.65
2022-12-16T02:06:09.008Z,1.66
2022-12-16T02:07:10.820Z,1.66
2022-12-16T02:08:13.988Z,1.67
2022-12-16T02:09:17.231Z,1.65
2022-12-16T02:10:20.295Z,1.65
2022-12-16T02:11:40.707Z,1.66
2022-12-16T02:12:50.449Z,1.67
2022-12-16T02:14:05.604Z,1.67
2022-12-16T02:15:10.487Z,1.66
2022-12-16T02:16:17.141Z,1.68
2022-12-16T02:17:21.966Z,1.67
2022-12-16T02:18:42.489Z,1.68
2022-12-16T02:20:04.254Z,1.70
2022-12-16T02:21:05.977Z,1.70
2022-12-16T02:22:10.760Z,1.69
2022-12-16T02:23:15.584Z,1.69
2022-12-16T02:24:32.721Z,1.68
2022-12-16T02:25:49.399Z,1.67
2022-12-16T02:27:03.733Z,1.68
2022-12-16T02:28:05.461Z,1.67
2022-12-16T02:29:29.973Z,1.66
2022-12-16T02:30:43.613Z,1.65
2022-12-16T02:31:53.859Z,1.64
2022-12-16T02:32:59.559Z,1.65
2022-12-16T02:34:08.617Z,1.65
2022-12-16T02:35:12.119Z,1.64
2022-12-16T02:36:26.691Z,1.65
2022-12-16T02:37:38.260Z,1.65
2022-12-16T02:38:53.406Z,1.64
2022-12-16T02:40:02.996Z,1.62
2022-12-16T02:41:07.096Z,1.60
2022-12-16T02:42:15.252Z,1.63
2022-12-16T02:43:34.213Z,1.62
2022-12-16T02:44:53.605Z,1.62
2022-12-16T02:45:55.570Z,1.58
2022-12-16T02:46:57.315Z,1.59
2022-12-16T02:47:59.728Z,1.59
2022-12-16T02:49:08.841Z,1.57
2022-12-16T02:50:29.343Z,1.57
2022-12-16T02:51:31.134Z,1.58
2022-12-16T02:52:34.915Z,1.59
2022-12-16T02:53:39.701Z,1.60
2022-12-16T02:54:42.506Z,1.61
2022-12-16T02:55:50.155Z,1.59
2022-12-16T02:57:02.213Z,1.56
2022-12-16T02:58:10.748Z,1.57
2022-12-16T02:59:47.985Z,1.59
2022-12-16T03:01:12.624Z,1.58
2022-12-16T03:02:33.178Z,1.59
2022-12-16T03:03:43.840Z,1.57
2022-12-16T03:04:51.660Z,1.55
2022-12-16T03:05:55.024Z,1.52
2022-12-16T03:06:58.446Z,1.51
2022-12-16T03:08:02.679Z,1.51
2022-12-16T03:09:07.149Z,1.51
2022-12-16T03:10:10.529Z,1.50
2022-12-16T03:11:13.059Z,1.49
2022-12-16T03:12:16.846Z,1.49
2022-12-16T03:13:20.830Z,1.51
2022-12-16T03:14:24.837Z,1.47
2022-12-16T03:15:27.792Z,1.47
2022-12-16T03:16:33.572Z,1.47
2022-12-16T03:17:37.056Z,1.50
2022-12-16T03:18:42.352Z,1.52
2022-12-16T03:19:46.407Z,1.50
2022-12-16T03:20:55.751Z,1.46
2022-12-16T03:22:02.737Z,1.43
2022-12-16T03:23:08.703Z,1.41
2022-12-16T03:24:14.136Z,1.44
2022-12-16T03:25:16.780Z,1.42
2022-12-16T03:26:41.163Z,1.43
2022-12-16T03:27:46.416Z,1.40
2022-12-16T03:28:54.444Z,1.39
2022-12-16T03:29:56.257Z,1.37
2022-12-16T03:31:07.295Z,1.37
2022-12-16T03:32:23.705Z,1.39
2022-12-16T03:33:30.464Z,1.41
2022-12-16T03:34:35.500Z,1.41
2022-12-16T03:35:43.547Z,1.40
2022-12-16T03:36:47.548Z,1.41
2022-12-16T03:37:51.496Z,1.39
2022-12-16T03:38:54.104Z,1.39
2022-12-16T03:39:58.348Z,1.39
2022-12-16T03:41:01.342Z,1.38
2022-12-16T03:42:03.588Z,1.37
2022-12-16T03:43:05.956Z,1.34
2022-12-16T03:44:08.041Z,1.30
2022-12-16T03:45:13.154Z,1.25
2022-12-16T03:46:15.043Z,1.26
2022-12-16T03:47:23.100Z,1.26
2022-12-16T03:48:26.463Z,1.22
2022-12-16T03:49:28.317Z,1.22
2022-12-16T03:50:31.491Z,1.24
2022-12-16T03:51:33.251Z,1.25
2022-12-16T03:52:35.042Z,1.27
2022-12-16T03:53:36.767Z,1.29
2022-12-16T03:54:38.507Z,1.30
2022-12-16T03:55:41.014Z,1.29
2022-12-16T03:56:43.523Z,1.26
2022-12-16T03:57:45.309Z,1.26
2022-12-16T03:58:47.336Z,1.28
2022-12-16T03:59:49.096Z,1.30
2022-12-16T04:00:51.020Z,1.31
2022-12-16T04:01:53.426Z,1.32
2022-12-16T04:02:55.518Z,1.31
2022-12-16T04:03:57.638Z,1.29
2022-12-16T04:04:59.427Z,1.29
2022-12-16T04:06:01.207Z,1.30
2022-12-16T04:07:21.410Z,1.28
2022-12-16T04:08:23.242Z,1.25
2022-12-16T04:09:25.028Z,1.26
2022-12-16T04:10:45.234Z,1.25
2022-12-16T04:12:05.454Z,1.27
2022-12-16T04:13:26.593Z,1.28
2022-12-16T04:14:53.508Z,1.31
2022-12-16T04:16:14.430Z,1.31
2022-12-16T04:17:34.722Z,1.33
2022-12-16T04:18:54.883Z,1.32
2022-12-16T04:20:15.167Z,1.33
2022-12-16T04:21:35.658Z,1.33
2022-12-16T04:22:58.309Z,1.34
2022-12-16T04:24:20.869Z,1.37
2022-12-16T04:25:28.898Z,1.38
2022-12-16T04:26:30.708Z,1.38
2022-12-16T04:27:32.489Z,1.37
2022-12-16T04:28:34.399Z,1.37
2022-12-16T04:29:56.199Z,1.35
2022-12-16T04:30:58.219Z,1.34
2022-12-16T04:32:00.853Z,1.35
2022-12-16T04:33:26.478Z,1.35
2022-12-16T04:34:29.770Z,1.36
2022-12-16T04:35:49.920Z,1.35
2022-12-16T04:37:13.938Z,1.35
2022-12-16T04:38:33.935Z,1.36
2022-12-16T04:39:54.012Z,1.29
2022-12-16T04:41:14.112Z,1.26
2022-12-16T04:42:34.664Z,1.20
2022-12-16T04:43:54.746Z,1.24
2022-12-16T04:45:14.943Z,1.26
2022-12-16T04:46:35.184Z,1.30
2022-12-16T04:47:57.533Z,1.30
2022-12-16T04:49:18.206Z,1.32
2022-12-16T04:50:38.503Z,1.35
2022-12-16T04:51:58.616Z,1.33
2022-12-16T04:53:18.637Z,1.31
2022-12-16T04:54:38.743Z,1.31
2022-12-16T04:56:04.178Z,1.31
2022-12-16T04:57:25.117Z,1.32
2022-12-16T04:58:45.194Z,1.33
2022-12-16T05:00:05.233Z,1.34
2022-12-16T05:01:39.210Z,1.38
2022-12-16T05:02:59.469Z,1.42
2022-12-16T05:04:19.661Z,1.46
2022-12-16T05:05:39.654Z,1.47
2022-12-16T05:06:59.769Z,1.47
2022-12-16T05:08:19.907Z,1.48
2022-12-16T05:09:40.212Z,1.47
2022-12-16T05:11:00.289Z,1.43
2022-12-16T05:12:20.414Z,1.42
2022-12-16T05:13:40.560Z,1.43
2022-12-16T05:15:00.942Z,1.42
2022-12-16T05:16:21.107Z,1.40
2022-12-16T05:17:41.311Z,1.40
2022-12-16T05:19:01.425Z,1.43
2022-12-16T05:20:22.149Z,1.43
2022-12-16T05:21:42.582Z,1.42
2022-12-16T05:23:02.599Z,1.40
2022-12-16T05:24:22.858Z,1.39
2022-12-16T05:25:42.917Z,1.38
2022-12-16T05:27:03.182Z,1.39
2022-12-16T05:28:23.230Z,1.40
2022-12-16T05:29:43.298Z,1.43
2022-12-16T05:31:03.476Z,1.38
2022-12-16T05:32:23.939Z,1.42
2022-12-16T05:33:44.007Z,1.44
2022-12-16T05:35:04.048Z,1.46
2022-12-16T05:36:24.665Z,1.47
2022-12-16T05:37:45.413Z,1.48
2022-12-16T05:39:05.514Z,1.48
2022-12-16T05:40:26.734Z,1.49
2022-12-16T05:41:46.791Z,1.52
2022-12-16T05:43:09.819Z,1.51
2022-12-16T05:44:32.354Z,1.49
2022-12-16T05:45:52.598Z,1.52
2022-12-16T05:47:13.107Z,1.52
2022-12-16T05:48:33.249Z,1.53
2022-12-16T05:49:53.175Z,1.55
2022-12-16T05:51:13.138Z,1.56
2022-12-16T05:52:33.183Z,1.57
2022-12-16T05:53:53.348Z,1.59
2022-12-16T05:55:34.260Z,1.59
2022-12-16T05:56:54.724Z,1.59
2022-12-16T05:58:14.721Z,1.59
2022-12-16T05:59:35.950Z,1.62
2022-12-16T06:00:56.659Z,1.62
2022-12-16T06:02:16.951Z,1.63
2022-12-16T06:03:37.691Z,1.63
2022-12-16T06:04:58.260Z,1.64
2022-12-16T06:06:18.203Z,1.66
2022-12-16T06:07:38.289Z,1.66
2022-12-16T06:09:06.069Z,1.67
2022-12-16T06:10:27.083Z,1.69
2022-12-16T06:11:47.503Z,1.70
2022-12-16T06:13:07.628Z,1.69
2022-12-16T06:14:27.762Z,1.68
2022-12-16T06:15:47.792Z,1.66
2022-12-16T06:17:07.796Z,1.67
2022-12-16T06:18:27.922Z,1.70
2022-12-16T06:19:48.038Z,1.72
2022-12-16T06:21:08.755Z,1.74
2022-12-16T06:22:28.822Z,1.76
2022-12-16T06:23:49.025Z,1.77
2022-12-16T06:25:09.127Z,1.71
2022-12-16T06:26:29.214Z,1.66
2022-12-16T06:27:50.049Z,1.68
2022-12-16T06:29:10.053Z,1.68
2022-12-16T06:30:30.155Z,1.71
2022-12-16T06:31:50.301Z,1.74
2022-12-16T06:33:10.651Z,1.75
2022-12-16T06:34:30.828Z,1.78
2022-12-16T06:35:51.291Z,1.80
2022-12-16T06:37:11.466Z,1.79
2022-12-16T06:38:31.642Z,1.78
2022-12-16T06:39:53.200Z,1.75
2022-12-16T06:41:13.472Z,1.77
2022-12-16T06:42:33.676Z,1.76
2022-12-16T06:43:53.743Z,1.75
2022-12-16T06:45:13.995Z,1.77
2022-12-16T06:46:35.053Z,1.77
2022-12-16T06:47:57.206Z,1.78
2022-12-16T06:49:17.309Z,1.77
2022-12-16T06:50:41.626Z,1.79
2022-12-16T06:52:04.687Z,1.82
2022-12-16T06:53:24.642Z,1.82
2022-12-16T06:54:44.731Z,1.82
2022-12-16T06:56:04.691Z,1.81
2022-12-16T06:57:24.813Z,1.82
2022-12-16T06:58:45.004Z,1.85
2022-12-16T07:00:05.505Z,1.85
2022-12-16T07:01:25.882Z,1.86
2022-12-16T07:02:46.237Z,1.85
2022-12-16T07:04:06.689Z,1.85
2022-12-16T07:05:27.420Z,1.84
2022-12-16T07:06:49.174Z,1.83
2022-12-16T07:08:10.456Z,1.80
2022-12-16T07:09:30.597Z,1.80
2022-12-16T07:10:50.739Z,1.80
2022-12-16T07:12:10.796Z,1.80
2022-12-16T07:13:31.017Z,1.82
2022-12-16T07:14:51.597Z,1.84
2022-12-16T07:16:11.816Z,1.85
2022-12-16T07:17:32.166Z,1.85
2022-12-16T07:18:52.272Z,1.77
2022-12-16T07:20:12.917Z,1.79
2022-12-16T07:21:33.486Z,1.82
2022-12-16T07:23:02.455Z,1.85
2022-12-16T07:24:28.164Z,1.87
2022-12-16T07:25:48.925Z,1.87
2022-12-16T07:27:08.984Z,1.87
2022-12-16T07:28:29.122Z,1.86
2022-12-16T07:29:49.231Z,1.84
2022-12-16T07:31:09.362Z,1.83
2022-12-16T07:32:29.725Z,1.82
2022-12-16T07:33:49.771Z,1.82
2022-12-16T07:35:09.919Z,1.84
2022-12-16T07:36:29.924Z,1.83
2022-12-16T07:37:49.871Z,1.79
2022-12-16T07:39:10.201Z,1.79
2022-12-16T07:40:30.350Z,1.77
2022-12-16T07:41:50.408Z,1.78
2022-12-16T07:43:10.441Z,1.68
2022-12-16T07:44:30.596Z,1.65
2022-12-16T07:45:51.998Z,1.64
2022-12-16T07:47:13.021Z,1.65
2022-12-16T07:48:33.004Z,1.64
2022-12-16T07:49:53.113Z,1.64
2022-12-16T07:51:15.564Z,1.65
2022-12-16T07:52:35.677Z,1.64
2022-12-16T07:53:55.789Z,1.63
2022-12-16T07:55:16.121Z,1.58
2022-12-16T07:56:36.364Z,1.54
2022-12-16T07:58:10.200Z,1.53
2022-12-16T07:59:30.799Z,1.55
2022-12-16T08:00:51.112Z,1.55
2022-12-16T08:02:11.557Z,1.57
2022-12-16T08:03:32.175Z,1.57
2022-12-16T08:04:52.557Z,1.56
2022-12-16T08:06:12.709Z,1.56
2022-12-16T08:07:32.904Z,1.54
2022-12-16T08:08:53.033Z,1.59
2022-12-16T08:10:13.096Z,1.62
2022-12-16T08:11:33.245Z,1.62
2022-12-16T08:13:13.184Z,1.65
2022-12-16T08:14:33.619Z,1.69
2022-12-16T08:15:53.832Z,1.72
2022-12-16T08:17:14.218Z,1.76
2022-12-16T08:18:34.273Z,1.78
2022-12-16T08:19:54.312Z,1.78
2022-12-16T08:21:14.943Z,1.80
2022-12-16T08:22:35.042Z,1.83
2022-12-16T08:23:55.168Z,1.85
2022-12-16T08:25:15.394Z,1.86
2022-12-16T08:26:35.675Z,1.87
2022-12-16T08:27:55.663Z,1.91
2022-12-16T08:29:42.503Z,1.92
2022-12-16T08:30:56.551Z,1.95
2022-12-16T08:32:16.744Z,1.96
2022-12-16T08:33:37.500Z,1.97
2022-12-16T08:34:58.246Z,1.99
2022-12-16T08:36:18.182Z,2.02
2022-12-16T08:37:38.774Z,2.03
2022-12-16T08:38:58.916Z,2.03
2022-12-16T08:40:34.736Z,2.04
2022-12-16T08:41:55.989Z,2.03
2022-12-16T08:43:16.520Z,2.06
2022-12-16T08:44:36.685Z,2.06
2022-12-16T08:45:56.895Z,2.07
2022-12-16T08:47:16.855Z,2.09
2022-12-16T08:48:36.890Z,2.10
2022-12-16T08:49:59.845Z,2.13
2022-12-16T08:51:23.831Z,2.14
2022-12-16T08:52:43.797Z,2.16
2022-12-16T08:54:03.852Z,2.16
2022-12-16T08:55:28.009Z,2.19
2022-12-16T08:56:53.271Z,2.18
2022-12-16T08:58:13.801Z,2.19
2022-12-16T08:59:33.950Z,2.22
2022-12-16T09:00:54.104Z,2.22
2022-12-16T09:02:14.727Z,2.20
2022-12-16T09:03:35.702Z,2.19
2022-12-16T09:04:56.545Z,2.19
2022-12-16T09:06:17.642Z,2.17
2022-12-16T09:07:38.787Z,2.17
2022-12-16T09:08:58.930Z,2.17
2022-12-16T09:10:18.886Z,2.18
2022-12-16T09:11:39.039Z,2.22
2022-12-16T09:12:59.005Z,2.23
2022-12-16T09:14:19.111Z,2.22
2022-12-16T09:15:39.457Z,2.21
2022-12-16T09:16:59.744Z,2.21
2022-12-16T09:18:19.810Z,2.23
2022-12-16T09:19:40.144Z,2.24
2022-12-16T09:21:00.713Z,2.25
2022-12-16T09:22:20.873Z,2.26
2022-12-16T09:23:40.970Z,2.29
2022-12-16T09:25:01.351Z,2.33
2022-12-16T09:26:21.847Z,2.36
2022-12-16T09:27:42.178Z,2.38
2022-12-16T09:29:02.847Z,2.38
2022-12-16T09:30:23.528Z,2.38
2022-12-16T09:31:45.364Z,2.41
2022-12-16T09:33:05.420Z,2.42
2022-12-16T09:34:25.632Z,2.43
2022-12-16T09:35:45.780Z,2.43
2022-12-16T09:37:06.094Z,2.43
2022-12-16T09:38:26.167Z,2.44
2022-12-16T09:39:46.231Z,2.45
2022-12-16T09:41:06.329Z,2.44
2022-12-16T09:42:46.326Z,2.43
2022-12-16T09:44:42.037Z,2.43
2022-12-16T09:46:08.881Z,2.39
2022-12-16T09:47:41.258Z,2.35
2022-12-16T09:49:30.340Z,2.31
2022-12-16T09:50:50.518Z,2.30
2022-12-16T09:52:18.174Z,2.28
2022-12-16T09:53:40.870Z,2.30
2022-12-16T09:55:04.545Z,2.27
2022-12-16T09:56:31.587Z,2.26
2022-12-16T09:57:53.953Z,2.26
2022-12-16T09:59:18.593Z,2.28
2022-12-16T10:00:43.498Z,2.29
2022-12-16T10:02:04.376Z,2.32
2022-12-16T10:03:32.321Z,2.31
2022-12-16T10:04:53.403Z,2.33
2022-12-16T10:06:21.832Z,2.33
2022-12-16T10:07:42.529Z,2.34
2022-12-16T10:09:05.224Z,2.35
2022-12-16T10:10:25.397Z,2.33
2022-12-16T10:11:57.592Z,2.33
2022-12-16T10:13:20.859Z,2.34
2022-12-16T10:14:48.079Z,2.35
2022-12-16T10:16:26.840Z,2.35
2022-12-16T10:17:47.500Z,2.34
2022-12-16T10:19:10.744Z,2.35
2022-12-16T10:20:34.188Z,2.38
2022-12-16T10:22:03.989Z,2.42
2022-12-16T10:23:37.423Z,2.42
2022-12-16T10:25:08.446Z,2.42
2022-12-16T10:26:47.754Z,2.37
2022-12-16T10:28:08.911Z,2.33
2022-12-16T10:29:37.017Z,2.30
2022-12-16T10:30:57.879Z,2.29
2022-12-16T10:32:18.380Z,2.29
2022-12-16T10:33:39.603Z,2.29
2022-12-16T10:35:00.099Z,2.27
2022-12-16T10:36:20.542Z,2.28
2022-12-16T10:37:47.264Z,2.28
2022-12-16T10:39:17.154Z,2.29
2022-12-16T10:40:44.767Z,2.32
2022-12-16T10:42:07.852Z,2.32
2022-12-16T10:43:38.725Z,2.33
2022-12-16T10:44:59.565Z,2.32
2022-12-16T10:46:22.093Z,2.33
2022-12-16T10:47:42.720Z,2.34
2022-12-16T10:49:03.454Z,2.31
2022-12-16T10:50:23.966Z,2.28
2022-12-16T10:51:48.553Z,2.26
2022-12-16T10:53:16.252Z,2.25
2022-12-16T10:54:36.533Z,2.27
2022-12-16T10:56:04.380Z,2.29
2022-12-16T10:57:30.306Z,2.30
2022-12-16T10:59:10.534Z,2.33
2022-12-16T11:00:40.810Z,2.35
2022-12-16T11:02:01.296Z,2.38
2022-12-16T11:03:41.027Z,2.42
2022-12-16T11:05:01.658Z,2.44
2022-12-16T11:06:22.371Z,2.47
2022-12-16T11:07:42.565Z,2.47
2022-12-16T11:09:02.560Z,2.44
2022-12-16T11:10:37.720Z,2.45
2022-12-16T11:11:57.999Z,2.46
2022-12-16T11:13:50.093Z,2.47
2022-12-16T11:16:51.866Z,2.48
2022-12-16T11:18:24.756Z,2.46
2022-12-16T11:19:46.360Z,2.49
2022-12-16T11:21:21.992Z,2.50
2022-12-16T11:22:42.520Z,2.50
2022-12-16T11:24:02.768Z,2.52
2022-12-16T11:25:26.181Z,2.53
2022-12-16T11:26:46.246Z,2.52
2022-12-16T11:28:06.475Z,2.54
2022-12-16T11:29:38.431Z,2.53
2022-12-16T11:30:58.460Z,2.54
2022-12-16T11:32:24.231Z,2.56
2022-12-16T11:33:46.904Z,2.58
2022-12-16T11:35:11.360Z,2.61
2022-12-16T11:36:31.382Z,2.60
2022-12-16T11:37:52.588Z,2.60
2022-12-16T11:39:14.533Z,2.60
2022-12-16T11:40:36.227Z,2.59
2022-12-16T11:41:58.198Z,2.58
2022-12-16T11:43:20.841Z,2.58
2022-12-16T11:45:01.228Z,2.59
2022-12-16T11:46:24.323Z,2.57
2022-12-16T11:48:03.663Z,2.56
2022-12-16T11:49:27.239Z,2.53
2022-12-16T11:50:49.833Z,2.55
2022-12-16T11:54:06.020Z,2.59
2022-12-16T11:56:03.234Z,2.60
2022-12-16T11:57:15.041Z,2.62
2022-12-16T11:58:35.036Z,2.57
2022-12-16T12:00:05.954Z,2.57
2022-12-16T12:01:29.160Z,2.58
2022-12-16T12:03:07.209Z,2.62
2022-12-16T12:04:27.714Z,2.65
2022-12-16T12:06:07.040Z,2.65
2022-12-16T12:07:55.483Z,2.65
2022-12-16T12:09:20.775Z,2.59
2022-12-16T12:11:08.421Z,2.59
2022-12-16T12:12:47.438Z,2.60
2022-12-16T12:14:16.822Z,2.63
2022-12-16T12:15:40.187Z,2.65
2022-12-16T12:17:06.189Z,2.65
2022-12-16T12:18:43.203Z,2.65
2022-12-16T12:20:16.075Z,2.64
2022-12-16T12:21:49.714Z,2.69
2022-12-16T12:23:09.765Z,2.69
2022-12-16T12:24:56.330Z,2.70
2022-12-16T12:26:31.421Z,2.72
2022-12-16T12:27:54.644Z,2.74
2022-12-16T12:29:14.812Z,2.74
2022-12-16T12:30:37.902Z,2.75
2022-12-16T12:32:10.038Z,2.77
2022-12-16T12:33:49.561Z,2.82
2022-12-16T12:35:21.943Z,2.85
2022-12-16T12:36:57.403Z,2.82
2022-12-16T12:38:23.434Z,2.82
2022-12-16T12:39:53.875Z,2.80
2022-12-16T12:41:17.974Z,2.76
2022-12-16T12:42:49.525Z,2.76
2022-12-16T12:44:20.927Z,2.81
2022-12-16T12:46:01.654Z,2.83
2022-12-16T12:47:24.942Z,2.80
2022-12-16T12:48:57.809Z,2.79
2022-12-16T12:50:47.577Z,2.78
2022-12-16T12:52:14.353Z,2.77
2022-12-16T12:53:57.205Z,2.77
2022-12-16T12:55:27.937Z,2.82
2022-12-16T12:56:51.253Z,2.86
2022-12-16T12:58:12.889Z,2.86
2022-12-16T12:59:41.208Z,2.85
2022-12-16T13:01:04.394Z,2.85
2022-12-16T13:02:29.843Z,2.86
2022-12-16T13:03:50.485Z,2.85
2022-12-16T13:05:11.227Z,2.82
2022-12-16T13:06:33.192Z,2.85
2022-12-16T13:07:53.225Z,2.87
2022-12-16T13:09:15.387Z,2.87
2022-12-16T13:10:44.619Z,2.86
2022-12-16T13:12:34.168Z,2.87
2022-12-16T13:13:55.686Z,2.87
2022-12-16T13:15:35.169Z,2.88
2022-12-16T13:17:25.266Z,2.91
2022-12-16T13:18:45.842Z,2.93
2022-12-16T13:20:12.554Z,2.95
2022-12-16T13:21:51.968Z,2.97
2022-12-16T13:23:12.173Z,2.98
2022-12-16T13:24:51.196Z,3.01
2022-12-16T13:26:11.920Z,2.97
2022-12-16T13:27:33.191Z,2.96
2022-12-16T13:28:56.572Z,2.95
2022-12-16T13:30:29.103Z,2.93
2022-12-16T13:31:49.782Z,2.96
2022-12-16T13:33:14.109Z,2.98
2022-12-16T13:34:34.339Z,2.99
2022-12-16T13:35:54.476Z,3.00
2022-12-16T13:37:21.357Z,3.00
2022-12-16T13:38:46.366Z,2.95
2022-12-16T13:40:25.337Z,2.88
2022-12-16T13:41:45.350Z,2.89
2022-12-16T13:43:05.586Z,2.89
2022-12-16T13:44:27.091Z,2.91
2022-12-16T13:45:49.824Z,2.89
2022-12-16T13:47:14.342Z,2.86
2022-12-16T13:48:48.644Z,2.85
2022-12-16T13:50:09.868Z,2.86
2022-12-16T13:51:50.391Z,2.84
2022-12-16T13:53:15.533Z,2.80
2022-12-16T13:54:35.687Z,2.81
2022-12-16T13:55:55.813Z,2.85
2022-12-16T13:57:20.034Z,2.88
2022-12-16T13:59:01.069Z,2.88
2022-12-16T14:00:38.835Z,2.79
2022-12-16T14:02:15.618Z,2.75
2022-12-16T14:04:02.016Z,2.79
2022-12-16T14:05:39.328Z,2.75
2022-12-16T14:06:59.624Z,2.78
2022-12-16T14:08:20.338Z,2.82
2022-12-16T14:09:47.180Z,2.84
2022-12-16T14:11:15.402Z,2.85
2022-12-16T14:12:49.148Z,2.86
2022-12-16T14:14:21.837Z,2.85
2022-12-16T14:15:47.851Z,2.81
2022-12-16T14:17:26.712Z,2.82
2022-12-16T14:19:04.355Z,2.84
2022-12-16T14:20:36.771Z,2.85
2022-12-16T14:22:01.521Z,2.83
2022-12-16T14:23:55.755Z,2.84
2022-12-16T14:25:22.058Z,2.84
2022-12-16T14:26:45.393Z,2.85
2022-12-16T14:28:23.250Z,2.82
2022-12-16T14:29:47.719Z,2.77
2022-12-16T14:31:08.083Z,2.75
2022-12-16T14:32:38.301Z,2.77
2022-12-16T14:33:59.397Z,2.74
2022-12-16T14:35:20.511Z,2.70
2022-12-16T14:36:45.147Z,2.67
2022-12-16T14:38:05.298Z,2.64
2022-12-16T14:39:33.574Z,2.63
2022-12-16T14:40:53.610Z,2.60
2022-12-16T14:42:13.853Z,2.60
2022-12-16T14:43:40.011Z,2.62
2022-12-16T14:45:04.733Z,2.65
2022-12-16T14:46:26.598Z,2.67
2022-12-16T14:47:48.747Z,2.65
2022-12-16T14:49:09.847Z,2.58
2022-12-16T14:50:40.699Z,2.54
2022-12-16T14:52:07.411Z,2.55
2022-12-16T14:53:43.342Z,2.52
2022-12-16T14:55:04.934Z,2.53
2022-12-16T14:56:28.998Z,2.50
2022-12-16T14:57:50.646Z,2.50
2022-12-16T14:59:25.756Z,2.51
2022-12-16T15:00:46.408Z,2.54
2022-12-16T15:02:07.565Z,2.55
2022-12-16T15:03:43.512Z,2.56
2022-12-16T15:05:24.159Z,2.56
2022-12-16T15:06:44.353Z,2.50
2022-12-16T15:08:05.018Z,2.52
2022-12-16T15:09:25.637Z,2.55
2022-12-16T15:10:46.797Z,2.52
2022-12-16T15:12:09.216Z,2.49
2022-12-16T15:13:35.778Z,2.53
2022-12-16T15:14:57.966Z,2.54
2022-12-16T15:16:18.363Z,2.51
2022-12-16T15:17:43.994Z,2.51
2022-12-16T15:19:05.847Z,2.48
2022-12-16T15:20:34.548Z,2.48
2022-12-16T15:21:56.184Z,2.48
2022-12-16T15:23:16.307Z,2.47
2022-12-16T15:24:38.767Z,2.48
2022-12-16T15:26:03.866Z,2.46
2022-12-16T15:27:41.598Z,2.43
2022-12-16T15:29:02.673Z,2.46
2022-12-16T15:30:41.766Z,2.45
2022-12-16T15:32:03.738Z,2.47
2022-12-16T15:33:25.168Z,2.46
2022-12-16T15:34:48.296Z,2.46
2022-12-16T15:36:08.576Z,2.42
2022-12-16T15:37:38.026Z,2.40
2022-12-16T15:38:59.741Z,2.38
2022-12-16T15:40:21.750Z,2.37
2022-12-16T15:41:50.863Z,2.36
2022-12-16T15:43:11.071Z,2.34
2022-12-16T15:44:33.865Z,2.33
2022-12-16T15:45:54.865Z,2.32
2022-12-16T15:47:16.795Z,2.32
2022-12-16T15:48:42.498Z,2.32
2022-12-16T15:50:04.763Z,2.33
2022-12-16T15:51:45.228Z,2.35
2022-12-16T15:53:06.869Z,2.37
2022-12-16T15:54:58.085Z,2.36
2022-12-16T15:56:18.959Z,2.35
2022-12-16T15:57:48.472Z,2.26
2022-12-16T15:59:08.763Z,2.24
2022-12-16T16:00:37.554Z,2.25
2022-12-16T16:02:04.568Z,2.28
2022-12-16T16:03:36.006Z,2.32
2022-12-16T16:04:56.625Z,2.34
2022-12-16T16:06:16.696Z,2.32
2022-12-16T16:07:45.787Z,2.30
2022-12-16T16:09:29.635Z,2.28
2022-12-16T16:10:49.833Z,2.28
2022-12-16T16:12:10.013Z,2.28
2022-12-16T16:13:30.420Z,2.25
2022-12-16T16:14:50.940Z,2.24
2022-12-16T16:16:12.161Z,2.27
2022-12-16T16:17:38.556Z,2.25
2022-12-16T16:18:59.145Z,2.24
2022-12-16T16:20:19.114Z,2.19
2022-12-16T16:21:39.730Z,2.17
2022-12-16T16:22:59.865Z,2.16
2022-12-16T16:24:19.990Z,2.16
2022-12-16T16:25:40.132Z,2.18
2022-12-16T16:27:00.962Z,2.17
2022-12-16T16:28:20.984Z,2.17
2022-12-16T16:29:41.091Z,2.19
2022-12-16T16:31:01.207Z,2.16
2022-12-16T16:32:21.894Z,2.09
2022-12-16T16:33:42.114Z,2.10
2022-12-16T16:35:02.378Z,2.11
2022-12-16T16:36:31.384Z,2.15
2022-12-16T16:37:51.589Z,2.17
2022-12-16T16:39:11.804Z,2.16
2022-12-16T16:40:45.726Z,2.13
2022-12-16T16:42:05.901Z,2.10
2022-12-16T16:43:26.021Z,2.12
2022-12-16T16:44:46.202Z,2.14
2022-12-16T16:46:13.012Z,2.10
2022-12-16T16:47:36.597Z,2.08
2022-12-16T16:48:57.890Z,2.08
2022-12-16T16:50:19.558Z,2.11
2022-12-16T16:51:40.417Z,2.14
2022-12-16T16:53:00.421Z,2.15
2022-12-16T16:54:20.582Z,2.17
2022-12-16T16:55:42.076Z,2.17
2022-12-16T16:57:02.212Z,2.18
2022-12-16T16:58:39.449Z,2.18
2022-12-16T16:59:59.704Z,2.19
2022-12-16T17:01:20.245Z,2.20
2022-12-16T17:02:42.033Z,2.22
2022-12-16T17:04:02.705Z,2.18
2022-12-16T17:05:24.964Z,2.17
2022-12-16T17:06:45.191Z,2.13
2022-12-16T17:08:05.529Z,2.13
2022-12-16T17:09:25.688Z,2.11
2022-12-16T17:10:45.846Z,2.11
2022-12-16T17:12:05.936Z,2.11
2022-12-16T17:13:27.601Z,2.10
2022-12-16T17:14:47.769Z,2.12
2022-12-16T17:16:07.874Z,2.13
2022-12-16T17:17:28.851Z,2.10
2022-12-16T17:18:52.332Z,2.10
2022-12-16T17:20:12.907Z,2.07
2022-12-16T17:21:33.609Z,2.07
2022-12-16T17:22:53.789Z,2.08
2022-12-16T17:24:14.160Z,2.09
2022-12-16T17:25:34.951Z,2.10
2022-12-16T17:26:59.617Z,2.12